Time;durP1;ratioP1;P1;durP2;ratioP2;P2;SDS_P1;SDS_P2;PMS_P1;PMS_P2;Temp;Humidity;BMP_temperature;BMP_pressure;BME280_temperature;BME280_humidity;BME280_pressure;Samples;Min_cycle;Max_cycle;Signal;HPM_P1;HPM_P2
2023/03/28 00:01:09;;;;;;;0.20;0.20;;;;;;;24.84;31.44;100068.72;1856138;77;27715;-45
2023/03/28 00:03:57;;;;;;;0.30;0.30;;;;;;;24.84;31.46;100074.22;1867478;76;27735;-43
2023/03/28 00:06:46;;;;;;;0.17;0.17;;;;;;;24.84;31.46;100071.47;1872311;75;28180;-44
2023/03/28 00:09:34;;;;;;;0.28;0.28;;;;;;;24.84;31.42;100083.30;1821764;77;27833;-46
2023/03/28 00:12:23;;;;;;;0.10;0.10;;;;;;;24.84;31.45;100078.34;1872230;76;27680;-45
2023/03/28 00:15:12;;;;;;;0.20;0.20;;;;;;;24.83;31.47;100079.43;1873213;76;28087;-46
2023/03/28 00:18:01;;;;;;;0.20;0.20;;;;;;;24.82;31.47;100081.33;1871304;76;27778;-46
2023/03/28 00:20:52;;;;;;;0.28;0.28;;;;;;;24.85;31.44;100081.40;1805709;79;28357;-44
2023/03/28 00:23:41;;;;;;;0.70;0.30;;;;;;;24.85;31.44;100078.66;1863299;76;28229;-45
2023/03/28 00:26:32;;;;;;;0.27;0.27;;;;;;;24.84;31.46;100079.71;1868458;76;28279;-44
2023/03/28 00:29:21;;;;;;;0.20;0.20;;;;;;;24.85;31.45;100067.13;1872082;76;27699;-43
2023/03/28 00:32:10;;;;;;;0.20;0.20;;;;;;;24.84;31.48;100076.97;1821365;77;28145;-45
2023/03/28 00:34:58;;;;;;;0.30;0.20;;;;;;;24.85;31.48;100071.78;1861517;76;28291;-43
2023/03/28 00:37:49;;;;;;;0.10;0.10;;;;;;;24.83;31.45;100061.56;1873139;75;28127;-44
2023/03/28 00:40:37;;;;;;;0.20;0.20;;;;;;;24.81;31.47;100060.41;1873466;76;28110;-44
2023/03/28 00:43:40;;;;;;;0.35;0.20;;;;;;;24.80;31.50;100051.04;1851283;76;27687;-43
2023/03/28 00:46:41;;;;;;;0.10;0.10;;;;;;;24.81;31.49;100051.35;1872321;76;27768;-44
2023/03/28 00:49:29;;;;;;;0.17;0.17;;;;;;;24.77;31.54;100047.37;1874095;76;27727;-46
2023/03/28 00:52:19;;;;;;;0.40;0.40;;;;;;;24.78;31.58;100043.57;1874025;76;27979;-48
2023/03/28 00:55:11;;;;;;;0.47;0.33;;;;;;;24.82;31.54;100048.89;1873519;76;28012;-46
2023/03/28 00:58:00;;;;;;;0.20;0.20;;;;;;;24.81;31.51;100047.23;1852389;76;28035;-46
2023/03/28 01:00:53;;;;;;;0.10;0.10;;;;;;;24.80;31.54;100047.77;1872691;76;27695;-45
2023/03/28 01:03:45;;;;;;;0.30;0.30;;;;;;;24.77;31.56;100039.98;1876958;75;38476;-43
2023/03/28 01:06:39;;;;;;;0.17;0.17;;;;;;;24.77;31.60;100042.73;1874678;75;28109;-45
2023/03/28 01:09:27;;;;;;;0.20;0.20;;;;;;;24.79;31.58;100032.86;1816456;78;28742;-47
2023/03/28 01:12:19;;;;;;;0.20;0.20;;;;;;;24.79;31.55;100038.36;1868689;76;28278;-46
2023/03/28 01:15:09;;;;;;;0.20;0.20;;;;;;;24.77;31.58;100035.02;1870177;75;28190;-49
2023/03/28 01:18:01;;;;;;;0.20;0.20;;;;;;;24.77;31.59;100027.61;1849347;76;28237;-44
2023/03/28 01:21:21;;;;;;;0.17;0.17;;;;;;;24.79;31.57;100024.63;1859420;76;28324;-42
2023/03/28 01:24:17;;;;;;;0.20;0.20;;;;;;;24.78;31.54;100014.72;1866615;76;28128;-48
2023/03/28 01:27:23;;;;;;;0.20;0.20;;;;;;;24.71;31.65;100009.31;1847983;76;28137;-48
2023/03/28 01:30:52;;;;;;;0.23;0.23;;;;;;;24.70;31.70;100015.86;1848131;75;28096;-46
2023/03/28 01:34:10;;;;;;;0.17;0.17;;;;;;;24.69;31.70;100015.02;1802305;76;28220;-45
2023/03/28 01:37:31;;;;;;;0.10;0.10;;;;;;;24.66;31.74;100014.14;1814212;76;28117;-45
2023/03/28 01:40:29;;;;;;;6.30;0.30;;;;;;;24.65;31.79;100015.20;1818817;77;27847;-43
2023/03/28 01:43:42;;;;;;;0.40;0.20;;;;;;;24.67;31.78;100004.80;1855125;75;28158;-47
2023/03/28 01:46:34;;;;;;;0.20;0.20;;;;;;;24.66;31.78;100012.77;1878289;75;28130;-43
2023/03/28 01:49:28;;;;;;;0.10;0.10;;;;;;;24.65;31.79;100002.83;1874307;75;28498;-44
2023/03/28 01:52:29;;;;;;;0.50;0.20;;;;;;;24.67;31.76;100002.59;1833424;78;28248;-49
2023/03/28 01:55:27;;;;;;;0.95;0.20;;;;;;;24.70;31.74;100007.09;1838626;77;28075;-45
2023/03/28 01:58:20;;;;;;;0.30;0.30;;;;;;;24.70;31.73;100006.24;1841524;76;28127;-45
2023/03/28 02:01:15;;;;;;;0.20;0.20;;;;;;;24.71;31.69;100007.38;1863047;74;28090;-44
2023/03/28 02:04:07;;;;;;;0.20;0.20;;;;;;;24.71;31.69;100008.74;1872404;75;28208;-45
2023/03/28 02:06:58;;;;;;;0.30;0.30;;;;;;;24.73;31.71;100015.40;1884301;74;28471;-48
2023/03/28 02:09:49;;;;;;;0.27;0.27;;;;;;;24.71;31.71;100022.48;1882617;75;28002;-47
2023/03/28 02:12:43;;;;;;;0.15;0.15;;;;;;;24.71;31.67;100018.36;1841622;75;28217;-48
2023/03/28 02:15:33;;;;;;;0.20;0.20;;;;;;;24.71;31.73;100010.68;1882223;75;28127;-42
2023/03/28 02:18:44;;;;;;;0.20;0.20;;;;;;;24.72;31.71;100010.44;1885039;75;27998;-45
2023/03/28 02:21:55;;;;;;;0.20;0.20;;;;;;;24.69;31.72;100004.03;1897246;74;28207;-44
2023/03/28 02:24:50;;;;;;;0.62;0.28;;;;;;;24.71;31.73;100009.31;1884674;75;27988;-47
2023/03/28 02:27:52;;;;;;;0.20;0.20;;;;;;;24.69;31.73;100004.03;1815027;75;28366;-45
2023/03/28 02:30:44;;;;;;;0.30;0.30;;;;;;;24.68;31.74;100004.27;1900692;74;28152;-45
2023/03/28 02:33:40;;;;;;;0.20;0.20;;;;;;;24.69;31.77;100006.77;1863805;75;28053;-44
2023/03/28 02:36:40;;;;;;;0.60;0.20;;;;;;;24.71;31.71;99999.69;1893907;74;28044;-43
2023/03/28 02:39:53;;;;;;;0.40;0.28;;;;;;;24.69;31.77;100003.22;1877247;75;28002;-45
2023/03/28 02:43:04;;;;;;;0.10;0.10;;;;;;;24.69;31.80;99999.09;1882153;75;28066;-44
2023/03/28 02:45:56;;;;;;;0.10;0.10;;;;;;;24.67;31.81;99997.94;1887091;75;28040;-46
2023/03/28 02:48:50;;;;;;;0.15;0.15;;;;;;;24.66;31.84;99998.19;1885067;75;28043;-44
2023/03/28 02:51:48;;;;;;;0.20;0.20;;;;;;;24.68;31.80;99998.25;1884665;75;28028;-46
2023/03/28 02:54:45;;;;;;;0.23;0.23;;;;;;;24.71;31.80;100002.44;1884667;75;28143;-43
2023/03/28 02:57:44;;;;;;;1.30;0.17;;;;;;;24.68;31.77;100005.12;1893337;74;28060;-45
2023/03/28 03:00:33;;;;;;;0.10;0.10;;;;;;;24.66;31.78;99997.66;1891383;75;28026;-44
2023/03/28 03:03:22;;;;;;;0.40;0.40;;;;;;;24.67;31.75;100000.69;1884779;75;28090;-44
2023/03/28 03:06:11;;;;;;;0.20;0.20;;;;;;;24.64;31.67;99998.96;1857437;75;28131;-45
2023/03/28 03:09:00;;;;;;;0.20;0.20;;;;;;;24.68;31.66;100009.77;1882482;75;28044;-43
2023/03/28 03:11:49;;;;;;;0.30;0.30;;;;;;;24.70;31.64;100008.46;1884761;75;28122;-47
2023/03/28 03:14:37;;;;;;;0.30;0.30;;;;;;;24.70;31.59;100015.33;1884713;75;28060;-45
2023/03/28 03:17:44;;;;;;;0.20;0.20;;;;;;;24.67;31.59;100014.95;1884794;75;28083;-43
2023/03/28 03:20:33;;;;;;;0.20;0.20;;;;;;;24.65;31.62;100010.23;1884798;75;27994;-45
2023/03/28 03:23:21;;;;;;;0.15;0.15;;;;;;;24.64;31.65;100009.39;1884634;75;28027;-45
2023/03/28 03:26:10;;;;;;;0.10;0.10;;;;;;;24.67;31.57;100010.30;1884699;75;28005;-44
2023/03/28 03:29:01;;;;;;;0.30;0.30;;;;;;;24.66;31.56;100022.38;1882133;74;28042;-46
2023/03/28 03:31:51;;;;;;;0.40;0.20;;;;;;;24.66;31.55;100025.12;1884913;75;28348;-47
2023/03/28 03:34:44;;;;;;;0.42;0.33;;;;;;;24.64;31.56;100029.18;1884916;75;28046;-45
2023/03/28 03:37:32;;;;;;;0.10;0.10;;;;;;;24.65;31.54;100021.22;1873184;74;28137;-45
2023/03/28 03:40:21;;;;;;;0.60;0.20;;;;;;;24.66;31.55;100020.16;1882353;74;28115;-45
2023/03/28 03:43:11;;;;;;;0.08;0.08;;;;;;;24.65;31.46;100026.71;1853163;76;28268;-44
2023/03/28 03:46:01;;;;;;;0.20;0.20;;;;;;;24.63;31.52;100020.09;1865437;76;28198;-48
2023/03/28 03:48:50;;;;;;;0.30;0.30;;;;;;;24.63;31.49;100025.59;1849898;76;27781;-44
2023/03/28 03:51:39;;;;;;;0.30;0.30;;;;;;;24.63;31.43;100018.72;1805545;78;27773;-46
2023/03/28 03:54:28;;;;;;;0.20;0.20;;;;;;;24.62;31.45;100028.02;1822096;78;27750;-45
2023/03/28 03:57:17;;;;;;;0.40;0.40;;;;;;;24.61;31.46;100024.98;1824956;77;28252;-49
2023/03/28 04:00:11;;;;;;;0.30;0.30;;;;;;;24.59;31.55;100027.14;1812792;77;28293;-47
2023/03/28 04:03:00;;;;;;;0.30;0.30;;;;;;;24.58;31.54;100035.06;1825841;77;28275;-45
2023/03/28 04:05:48;;;;;;;0.20;0.20;;;;;;;24.60;31.61;100043.05;1832089;76;28328;-46
2023/03/28 04:08:37;;;;;;;0.53;0.35;;;;;;;24.59;31.52;100047.74;1835361;77;28182;-48
2023/03/28 04:11:26;;;;;;;0.40;0.40;;;;;;;24.57;31.57;100047.14;1831733;77;28273;-47
2023/03/28 04:14:15;;;;;;;0.20;0.20;;;;;;;24.55;31.60;100049.81;1778112;79;28330;-46
2023/03/28 04:17:04;;;;;;;0.30;0.30;;;;;;;24.56;31.62;100047.36;1802687;78;28330;-47
2023/03/28 04:19:54;;;;;;;0.40;0.40;;;;;;;24.54;31.56;100042.11;1802758;78;28194;-45
2023/03/28 04:22:44;;;;;;;0.23;0.23;;;;;;;24.55;31.53;100054.75;1804857;78;28354;-45
2023/03/28 04:25:33;;;;;;;0.30;0.30;;;;;;;24.57;31.53;100052.64;1803550;78;28336;-47
2023/03/28 04:28:26;;;;;;;0.20;0.20;;;;;;;24.56;31.52;100051.47;1810279;78;28225;-46
2023/03/28 04:31:17;;;;;;;0.27;0.27;;;;;;;24.55;31.50;100053.38;1820407;77;28285;-44
2023/03/28 04:34:07;;;;;;;0.10;0.10;;;;;;;24.52;31.48;100055.23;1814287;78;28170;-45
2023/03/28 04:37:00;;;;;;;0.65;0.35;;;;;;;24.53;31.47;100058.80;1804255;78;28329;-46
2023/03/28 04:39:52;;;;;;;0.30;0.30;;;;;;;24.53;31.48;100060.17;1874738;76;28043;-43
2023/03/28 04:42:58;;;;;;;0.20;0.20;;;;;;;24.52;31.45;100061.27;1811939;78;28223;-44
2023/03/28 04:45:48;;;;;;;0.23;0.23;;;;;;;24.48;31.50;100063.63;1874711;76;28149;-45
2023/03/28 04:48:38;;;;;;;0.25;0.25;;;;;;;24.46;31.51;100066.30;1819312;78;28258;-45
2023/03/28 04:51:27;;;;;;;0.20;0.20;;;;;;;24.43;31.56;100064.03;1851702;76;28106;-44
2023/03/28 04:54:17;;;;;;;0.90;0.13;;;;;;;24.42;31.52;100068.69;1819192;78;28215;-43
2023/03/28 04:57:10;;;;;;;0.57;0.33;;;;;;;24.43;31.48;100073.12;1870353;76;28235;-47
2023/03/28 05:00:00;;;;;;;0.40;0.40;;;;;;;24.45;31.50;100079.22;1823248;78;28166;-47
2023/03/28 05:03:09;;;;;;;0.20;0.20;;;;;;;24.42;31.53;100071.43;1818650;78;28354;-46
2023/03/28 05:05:58;;;;;;;0.20;0.20;;;;;;;24.43;31.55;100070.91;1825060;78;28302;-45
2023/03/28 05:08:47;;;;;;;0.50;0.30;;;;;;;24.43;31.58;100073.12;1847454;76;28246;-47
2023/03/28 05:11:36;;;;;;;1.50;0.30;;;;;;;24.41;31.61;100086.22;1867551;76;28141;-47
2023/03/28 05:14:24;;;;;;;0.30;0.30;;;;;;;24.41;31.50;100084.03;1829025;78;28368;-48
2023/03/28 05:17:14;;;;;;;0.50;0.50;;;;;;;24.41;31.32;100088.97;1848832;76;28851;-47
2023/03/28 05:20:12;;;;;;;0.25;0.25;;;;;;;24.38;30.70;100093.57;1821459;78;28312;-48
2023/03/28 05:23:04;;;;;;;0.30;0.30;;;;;;;24.35;30.79;100088.53;1862348;76;28053;-47
2023/03/28 05:25:57;;;;;;;0.45;0.40;;;;;;;24.34;30.87;100088.77;1850305;76;28004;-46
2023/03/28 05:28:45;;;;;;;0.35;0.30;;;;;;;24.34;30.96;100095.08;1836807;77;28123;-47
2023/03/28 05:31:35;;;;;;;0.30;0.30;;;;;;;24.32;30.99;100097.22;1864279;76;28130;-45
2023/03/28 05:34:38;;;;;;;2.30;0.30;;;;;;;24.32;31.07;100097.22;1823291;78;28650;-45
2023/03/28 05:37:27;;;;;;;1.17;0.20;;;;;;;24.31;31.14;100101.06;1854085;77;28740;-49
2023/03/28 05:40:15;;;;;;;0.30;0.30;;;;;;;24.32;31.16;100098.59;1802757;78;28347;-46
2023/03/28 05:43:04;;;;;;;1.20;0.50;;;;;;;24.33;31.23;100100.29;1832168;77;28204;-47
2023/03/28 05:45:54;;;;;;;0.30;0.30;;;;;;;24.29;31.20;100099.08;1834024;77;28073;-47
2023/03/28 05:48:45;;;;;;;0.40;0.40;;;;;;;24.33;31.24;100108.52;1822966;78;28173;-49
2023/03/28 05:51:33;;;;;;;2.10;0.55;;;;;;;24.33;31.26;100104.94;1797437;78;28211;-47
2023/03/28 05:54:21;;;;;;;0.42;0.42;;;;;;;24.31;31.39;100112.56;1839508;77;28135;-45
2023/03/28 05:57:10;;;;;;;0.65;0.57;;;;;;;24.31;31.54;100123.02;1822751;77;38670;-45
2023/03/28 05:59:59;;;;;;;0.62;0.50;;;;;;;24.32;31.59;100120.56;1831420;77;28143;-47
2023/03/28 06:02:49;;;;;;;0.40;0.40;;;;;;;24.32;31.73;100123.87;1857205;76;28298;-46
2023/03/28 06:05:40;;;;;;;0.40;0.40;;;;;;;24.32;31.77;100125.23;1845764;77;28267;-43
2023/03/28 06:08:33;;;;;;;0.35;0.35;;;;;;;24.35;31.88;100131.09;1848018;76;28225;-46
2023/03/28 06:11:21;;;;;;;0.40;0.37;;;;;;;24.33;31.96;100133.23;1840077;77;28125;-46
2023/03/28 06:14:11;;;;;;;0.33;0.33;;;;;;;24.35;31.98;100132.99;1904080;73;28025;-47
2023/03/28 06:17:00;;;;;;;0.57;0.55;;;;;;;24.34;32.03;100139.57;1856714;76;28249;-46
2023/03/28 06:19:51;;;;;;;0.30;0.30;;;;;;;24.32;32.11;100138.41;1854338;77;28285;-45
2023/03/28 06:22:40;;;;;;;0.88;0.47;;;;;;;24.34;32.11;100148.63;1932860;73;28199;-46
2023/03/28 06:25:30;;;;;;;0.50;0.30;;;;;;;24.34;32.24;100158.23;1868179;75;28283;-47
2023/03/28 06:28:18;;;;;;;0.47;0.47;;;;;;;24.32;32.29;100156.26;1922527;74;27655;-47
2023/03/28 06:31:23;;;;;;;1.70;0.40;;;;;;;24.34;32.34;100160.17;1918952;74;32508;-45
2023/03/28 06:34:12;;;;;;;1.12;0.50;;;;;;;24.35;32.37;100157.18;1939997;73;28009;-48
2023/03/28 06:37:05;;;;;;;0.50;0.50;;;;;;;24.40;32.44;100159.23;1859837;75;28225;-47
2023/03/28 06:40:13;;;;;;;2.60;0.50;;;;;;;24.39;32.44;100158.39;1936261;73;28020;-47
2023/03/28 06:43:02;;;;;;;0.40;0.40;;;;;;;24.35;32.53;100149.47;1882181;75;28269;-50
2023/03/28 06:46:00;;;;;;;0.30;0.30;;;;;;;24.37;32.52;100150.08;1905419;74;28145;-47
2023/03/28 06:48:50;;;;;;;0.30;0.30;;;;;;;24.34;32.59;100147.25;1903684;74;28042;-47
2023/03/28 06:51:46;;;;;;;0.30;0.30;;;;;;;24.37;32.59;100148.17;1908759;74;27985;-46
2023/03/28 06:54:34;;;;;;;0.30;0.30;;;;;;;24.34;32.63;100150.00;1927415;74;28167;-48
2023/03/28 06:57:23;;;;;;;0.40;0.30;;;;;;;24.35;32.60;100154.96;1930398;73;28008;-48
2023/03/28 07:00:14;;;;;;;0.30;0.30;;;;;;;24.32;32.60;100151.33;1905420;75;27993;-45
2023/03/28 07:03:21;;;;;;;0.35;0.35;;;;;;;24.35;32.61;100159.08;1865404;75;28167;-47
2023/03/28 07:06:11;;;;;;;0.35;0.35;;;;;;;24.34;32.57;100153.30;1935561;73;28006;-48
2023/03/28 07:09:00;;;;;;;0.25;0.25;;;;;;;24.32;32.58;100156.26;1886964;75;27753;-46
2023/03/28 07:11:52;;;;;;;0.30;0.28;;;;;;;24.31;32.57;100149.11;1895066;75;28283;-46
2023/03/28 07:14:43;;;;;;;0.30;0.30;;;;;;;24.34;32.56;100161.54;1862423;76;28235;-46
2023/03/28 07:17:31;;;;;;;0.30;0.30;;;;;;;24.31;32.58;100164.20;1915171;73;28173;-47
2023/03/28 07:20:24;;;;;;;0.50;0.50;;;;;;;24.31;32.55;100173.82;1902135;75;28723;-46
2023/03/28 07:23:13;;;;;;;0.50;0.30;;;;;;;24.30;32.56;100168.53;1900505;75;28059;-48
2023/03/28 07:26:01;;;;;;;0.90;0.30;;;;;;;24.29;32.53;100162.23;1898664;75;27973;-44
2023/03/28 07:28:52;;;;;;;0.43;0.43;;;;;;;24.31;32.51;100165.58;1852319;75;28162;-47
2023/03/28 07:31:40;;;;;;;1.40;0.30;;;;;;;24.30;32.53;100172.13;1940577;73;28146;-44
2023/03/28 07:34:29;;;;;;;0.60;0.40;;;;;;;24.28;32.58;100167.93;1890788;75;28220;-46
2023/03/28 07:37:19;;;;;;;0.33;0.33;;;;;;;24.29;32.54;100173.22;1863054;76;28341;-46
2023/03/28 07:40:11;;;;;;;0.42;0.42;;;;;;;24.28;32.52;100177.02;1913870;73;28412;-49
2023/03/28 07:43:01;;;;;;;0.45;0.45;;;;;;;24.29;32.50;100173.22;1891853;75;28263;-45
2023/03/28 07:45:49;;;;;;;0.45;0.45;;;;;;;24.28;32.52;100170.16;1900550;75;27974;-46
2023/03/28 07:48:39;;;;;;;0.40;0.40;;;;;;;24.28;32.52;100175.64;1927048;74;28188;-49
2023/03/28 07:51:28;;;;;;;0.40;0.40;;;;;;;24.27;32.54;100178.06;1842190;76;28106;-45
2023/03/28 07:54:17;;;;;;;0.28;0.28;;;;;;;24.27;32.50;100175.87;1861516;76;28114;-45
2023/03/28 07:57:06;;;;;;;0.30;0.30;;;;;;;24.27;32.54;100182.19;1861380;76;28232;-49
2023/03/28 08:00:12;;;;;;;0.40;0.40;;;;;;;24.28;32.52;100189.89;1936234;73;28085;-46
2023/03/28 08:02:56;;;;;;;0.40;0.40;;;;;;;24.26;32.52;100174.19;1852577;75;28158;-47
2023/03/28 08:05:50;;;;;;;0.30;0.30;;;;;;;24.26;32.50;100181.90;1940469;73;28054;-47
2023/03/28 08:08:36;;;;;;;1.07;0.40;;;;;;;24.25;32.53;100179.39;1901323;75;28107;-45
2023/03/28 08:11:26;;;;;;;0.55;0.40;;;;;;;24.25;32.52;100185.70;1875291;75;28218;-48
2023/03/28 08:14:18;;;;;;;0.60;0.50;;;;;;;24.27;32.51;100192.35;1804301;78;28167;-49
2023/03/28 08:17:07;;;;;;;0.60;0.60;;;;;;;24.27;32.45;100195.91;1861993;76;28065;-48
2023/03/28 08:19:57;;;;;;;0.40;0.40;;;;;;;24.27;32.50;100194.55;1861814;76;28138;-46
2023/03/28 08:22:50;;;;;;;0.25;0.25;;;;;;;24.27;32.49;100200.03;1863720;76;28673;-47
2023/03/28 08:26:06;;;;;;;0.53;0.30;;;;;;;24.29;32.45;100197.08;1850068;76;27984;-48
2023/03/28 08:29:02;;;;;;;0.30;0.30;;;;;;;24.24;32.47;100196.39;1810477;77;28200;-48
2023/03/28 08:31:48;;;;;;;0.28;0.28;;;;;;;24.23;32.48;100204.31;1825178;77;28119;-47
2023/03/28 08:34:37;;;;;;;0.50;0.50;;;;;;;24.26;32.46;100200.27;1838492;77;28078;-49
2023/03/28 08:37:28;;;;;;;0.50;0.50;;;;;;;24.25;32.46;100202.73;1836037;77;28113;-50
2023/03/28 08:40:20;;;;;;;1.75;0.37;;;;;;;24.29;32.45;100202.57;1821428;77;28147;-48
2023/03/28 08:43:34;;;;;;;0.30;0.30;;;;;;;24.27;32.42;100194.55;1855615;76;28186;-46
2023/03/28 08:46:24;;;;;;;0.40;0.40;;;;;;;24.26;32.40;100188.77;1855076;77;28230;-45
2023/03/28 08:49:16;;;;;;;0.33;0.33;;;;;;;24.24;32.49;100195.02;1854988;77;28172;-49
2023/03/28 08:52:06;;;;;;;0.40;0.40;;;;;;;24.21;32.47;100196.84;1854510;77;28163;-47
2023/03/28 08:55:01;;;;;;;0.30;0.30;;;;;;;24.24;32.41;100199.66;1837437;77;28164;-45
2023/03/28 08:57:52;;;;;;;0.60;0.45;;;;;;;24.24;32.38;100191.43;1853537;77;28266;-49
2023/03/28 09:00:41;;;;;;;0.40;0.40;;;;;;;24.26;32.39;100196.16;1853337;77;28165;-46
2023/03/28 09:03:32;;;;;;;0.40;0.40;;;;;;;24.25;32.39;100191.75;1852470;77;28148;-45
2023/03/28 09:06:31;;;;;;;0.70;0.60;;;;;;;24.27;32.38;100186.86;1853962;77;28273;-46
2023/03/28 09:09:35;;;;;;;0.37;0.37;;;;;;;24.26;32.36;100187.39;1850243;77;28110;-46
2023/03/28 09:12:31;;;;;;;0.40;0.40;;;;;;;24.23;32.38;100183.72;1875862;74;28225;-48
2023/03/28 09:15:23;;;;;;;1.90;0.50;;;;;;;24.23;32.39;100185.09;1888847;75;28181;-48
2023/03/28 09:18:36;;;;;;;0.60;0.60;;;;;;;24.22;32.40;100182.59;1886304;75;28174;-46
2023/03/28 09:21:43;;;;;;;0.70;0.70;;;;;;;24.23;32.40;100176.01;1887415;75;28198;-46
2023/03/28 09:24:47;;;;;;;0.68;0.50;;;;;;;24.22;32.40;100169.70;1888769;75;28201;-46
2023/03/28 09:27:40;;;;;;;0.70;0.70;;;;;;;24.11;32.38;100155.34;1886913;75;28366;-50
2023/03/28 09:30:35;;;;;;;0.70;0.70;;;;;;;24.20;32.34;100162.20;1914971;73;28076;-46
2023/03/28 09:33:25;;;;;;;1.05;0.70;;;;;;;24.24;32.38;100155.73;1934113;73;28090;-45
2023/03/28 09:36:17;;;;;;;1.32;0.88;;;;;;;24.20;32.37;100157.27;1932121;73;28038;-44
2023/03/28 09:39:10;;;;;;;0.75;0.65;;;;;;;24.21;32.34;100157.56;1867738;76;28128;-46
2023/03/28 09:42:21;;;;;;;0.60;0.60;;;;;;;24.22;32.34;100149.64;1841346;77;28219;-45
2023/03/28 09:45:45;;;;;;;1.30;0.70;;;;;;;24.22;32.35;100162.84;1820823;77;28349;-47
2023/03/28 09:48:51;;;;;;;0.90;0.90;;;;;;;24.20;32.35;100164.95;1924239;73;28138;-46
2023/03/28 09:51:41;;;;;;;1.20;0.70;;;;;;;24.15;32.39;100159.34;1899179;75;28354;-45
2023/03/28 09:54:33;;;;;;;0.90;0.90;;;;;;;24.17;32.37;100151.70;1900227;75;28189;-47
2023/03/28 09:57:23;;;;;;;1.30;0.80;;;;;;;24.18;32.34;100151.99;1854414;77;28223;-44
2023/03/28 10:00:22;;;;;;;0.90;0.90;;;;;;;24.19;32.33;100140.48;1934982;73;38446;-48
2023/03/28 10:03:28;;;;;;;1.10;1.00;;;;;;;24.24;32.27;100135.15;1897979;75;28097;-48
2023/03/28 10:06:26;;;;;;;0.80;0.80;;;;;;;24.21;32.30;100131.48;1855671;75;28194;-47
2023/03/28 10:09:23;;;;;;;1.12;1.00;;;;;;;24.19;32.28;100128.98;1905562;74;28154;-46
2023/03/28 10:12:37;;;;;;;0.72;0.72;;;;;;;24.20;32.29;100131.20;1914955;74;28102;-47
2023/03/28 10:15:32;;;;;;;0.78;0.78;;;;;;;24.17;32.32;100132.48;1819014;78;28231;-47
2023/03/28 10:18:41;;;;;;;1.00;1.00;;;;;;;24.16;32.28;100130.80;1875022;76;28058;-48
2023/03/28 10:21:34;;;;;;;0.82;0.82;;;;;;;24.14;32.35;100131.56;1818970;78;28313;-44
2023/03/28 10:24:25;;;;;;;1.00;1.00;;;;;;;24.16;32.31;100133.55;1874910;76;28074;-46
2023/03/28 10:27:27;;;;;;;1.30;1.00;;;;;;;24.17;32.27;100129.74;1817722;78;28488;-45
2023/03/28 10:30:24;;;;;;;2.65;1.02;;;;;;;24.17;32.27;100125.63;1818861;78;28316;-46
2023/03/28 10:33:29;;;;;;;1.20;1.10;;;;;;;24.20;32.21;100123.77;1873579;76;28185;-45
2023/03/28 10:36:37;;;;;;;1.13;1.07;;;;;;;24.19;32.25;100131.72;1816649;78;28279;-46
2023/03/28 10:39:34;;;;;;;0.90;0.90;;;;;;;24.16;32.25;100134.91;1817683;78;28304;-46
2023/03/28 10:42:44;;;;;;;1.05;1.00;;;;;;;24.16;32.26;100134.07;1825126;78;28207;-46
2023/03/28 10:45:36;;;;;;;1.37;1.13;;;;;;;24.14;32.31;100148.56;1824184;78;28161;-49
2023/03/28 10:48:29;;;;;;;1.25;1.15;;;;;;;24.17;32.24;100153.61;1822738;78;28257;-43
2023/03/28 10:51:21;;;;;;;1.07;1.00;;;;;;;24.17;32.23;100151.70;1819314;78;28244;-47
2023/03/28 10:54:22;;;;;;;1.20;1.10;;;;;;;24.16;32.25;100140.41;1819252;78;28245;-46
2023/03/28 10:57:19;;;;;;;1.40;1.30;;;;;;;24.17;32.19;100140.72;1818033;78;28253;-45
2023/03/28 11:00:18;;;;;;;1.20;1.10;;;;;;;24.16;32.19;100148.64;1824447;78;28252;-49
2023/03/28 11:03:26;;;;;;;1.07;1.07;;;;;;;24.19;32.17;100138.58;1805418;78;28268;-47
2023/03/28 11:06:24;;;;;;;1.27;1.17;;;;;;;24.18;32.20;100138.83;1822568;78;28248;-49
2023/03/28 11:09:23;;;;;;;1.45;1.35;;;;;;;24.17;32.17;100142.63;1822506;78;28295;-46
2023/03/28 11:12:28;;;;;;;1.10;1.10;;;;;;;24.17;32.18;100135.23;1874739;76;28137;-49
2023/03/28 11:15:26;;;;;;;1.35;1.25;;;;;;;24.15;32.20;100115.41;1821188;77;28288;-48
2023/03/28 11:18:56;;;;;;;1.32;1.32;;;;;;;24.14;32.21;100110.13;1829915;77;27870;-47
2023/03/28 11:21:52;;;;;;;1.35;1.25;;;;;;;24.13;32.21;100117.55;1837837;77;28105;-44
2023/03/28 11:24:59;;;;;;;1.22;1.12;;;;;;;24.11;32.25;100115.55;1838947;77;28140;-49
2023/03/28 11:28:04;;;;;;;1.37;1.30;;;;;;;24.13;32.22;100106.58;1845526;76;28185;-45
2023/03/28 11:30:57;;;;;;;1.17;1.07;;;;;;;24.14;32.20;100097.78;1806604;79;28286;-48
2023/03/28 11:34:02;;;;;;;2.70;1.27;;;;;;;24.12;32.20;100098.02;1834255;77;28216;-46
2023/03/28 11:37:16;;;;;;;1.40;1.30;;;;;;;24.11;32.22;100088.09;1806768;79;28305;-45
2023/03/28 11:40:09;;;;;;;1.70;1.32;;;;;;;24.12;32.20;100097.17;1816545;78;28137;-46
2023/03/28 11:43:08;;;;;;;1.72;1.40;;;;;;;24.11;32.19;100088.09;1833101;77;28178;-46
2023/03/28 11:46:01;;;;;;;2.30;1.40;;;;;;;24.13;32.20;100082.40;1846397;77;28155;-45
2023/03/28 11:48:55;;;;;;;1.00;1.00;;;;;;;24.14;32.19;100086.27;1845565;77;28201;-47
2023/03/28 11:51:56;;;;;;;1.22;1.22;;;;;;;24.15;32.18;100076.98;1851536;77;28048;-48
2023/03/28 11:55:19;;;;;;;1.30;1.20;;;;;;;24.16;32.17;100063.55;1819128;77;28311;-48
2023/03/28 11:58:20;;;;;;;1.40;1.30;;;;;;;24.14;32.14;100056.61;1806798;79;28297;-46
2023/03/28 12:01:23;;;;;;;2.60;1.60;;;;;;;24.10;32.22;100045.27;1818455;77;28223;-46
2023/03/28 12:04:15;;;;;;;1.47;1.37;;;;;;;24.13;32.19;100046.19;1834335;77;28189;-45
2023/03/28 12:07:11;;;;;;;1.57;1.47;;;;;;;24.14;32.16;100034.65;1846126;77;28209;-47
2023/03/28 12:10:20;;;;;;;1.20;1.20;;;;;;;24.12;32.19;100039.53;1846295;77;33013;-51
2023/03/28 12:13:20;;;;;;;1.15;1.15;;;;;;;24.15;32.14;100024.83;1822517;77;28208;-47
2023/03/28 12:16:13;;;;;;;1.40;1.30;;;;;;;24.16;32.13;100016.03;1821760;77;28302;-48
2023/03/28 12:19:05;;;;;;;1.45;1.35;;;;;;;24.16;32.09;100011.39;1817481;77;28258;-46
2023/03/28 12:22:20;;;;;;;1.12;1.12;;;;;;;24.15;32.11;100002.87;1846167;77;28251;-49
2023/03/28 12:25:32;;;;;;;1.10;1.10;;;;;;;24.15;32.12;100009.73;1838926;77;28156;-46
2023/03/28 12:28:29;;;;;;;1.47;1.37;;;;;;;24.13;32.14;99990.45;1837766;77;28224;-44
2023/03/28 12:31:37;;;;;;;1.17;1.17;;;;;;;24.08;32.10;99983.44;1833914;77;28160;-49
2023/03/28 12:34:35;;;;;;;1.30;1.20;;;;;;;24.15;32.09;99997.38;1845983;77;28152;-47
2023/03/28 12:38:06;;;;;;;1.30;1.20;;;;;;;24.17;32.11;99995.77;1846086;77;28182;-49
2023/03/28 12:41:02;;;;;;;1.35;1.12;;;;;;;24.15;32.14;99994.64;1837221;77;28341;-46
2023/03/28 12:44:03;;;;;;;1.20;1.10;;;;;;;24.17;32.07;99984.78;1844375;77;28128;-45
2023/03/28 12:47:10;;;;;;;1.40;1.30;;;;;;;24.18;32.09;99970.81;1820115;77;28298;-48
2023/03/28 12:50:02;;;;;;;1.72;1.10;;;;;;;24.20;32.08;99970.60;1793326;78;28268;-44
2023/03/28 12:52:51;;;;;;;1.50;1.37;;;;;;;24.19;32.05;99970.28;1845423;77;28236;-48
2023/03/28 12:55:44;;;;;;;1.22;1.10;;;;;;;24.23;32.01;99964.63;1835581;77;28258;-45
2023/03/28 12:58:37;;;;;;;1.50;1.40;;;;;;;24.23;31.99;99954.48;1845199;77;28491;-45
2023/03/28 13:01:43;;;;;;;1.17;1.10;;;;;;;24.24;31.97;99952.05;1811874;77;28246;-48
2023/03/28 13:04:54;;;;;;;1.40;1.30;;;;;;;24.23;32.00;99945.41;1822422;77;28223;-45
2023/03/28 13:08:12;;;;;;;1.25;1.15;;;;;;;24.21;32.01;99940.69;1808105;77;28184;-48
2023/03/28 13:11:13;;;;;;;1.20;1.10;;;;;;;24.24;31.97;99943.82;1817758;77;28271;-47
2023/03/28 13:14:10;;;;;;;1.32;1.22;;;;;;;24.24;31.97;99936.95;1846342;77;28253;-47
2023/03/28 13:17:01;;;;;;;1.20;1.20;;;;;;;24.23;31.98;99926.19;1848573;77;28089;-47
2023/03/28 13:20:16;;;;;;;1.30;1.30;;;;;;;24.22;32.01;99919.89;1840898;77;28184;-51
2023/03/28 13:23:08;;;;;;;1.10;1.10;;;;;;;24.23;31.98;99913.31;1809155;77;28224;-48
2023/03/28 13:26:01;;;;;;;1.60;1.27;;;;;;;24.20;31.99;99906.91;1836472;77;31649;-47
2023/03/28 13:28:50;;;;;;;1.87;1.27;;;;;;;24.25;31.96;99898.80;1803106;79;28385;-48
2023/03/28 13:31:42;;;;;;;1.72;1.37;;;;;;;24.27;31.96;99899.97;1830277;77;28689;-48
2023/03/28 13:34:33;;;;;;;1.70;1.10;;;;;;;24.28;31.92;99906.58;1831938;78;28235;-47
2023/03/28 13:37:24;;;;;;;1.20;1.12;;;;;;;24.27;31.95;99905.45;1833309;78;28108;-45